Time;durP1;ratioP1;P1;durP2;ratioP2;P2;SDS_P1;SDS_P2;PMS_P1;PMS_P2;Temp;Humidity;BMP_temperature;BMP_pressure;BME280_temperature;BME280_humidity;BME280_pressure;Samples;Min_cycle;Max_cycle;Signal;HPM_P1;HPM_P2
2022/11/02 00:02:24;;;;;;;10.23;7.30;;;11.30;41.60;;;;;;5002261;28;20499;-67
2022/11/02 00:04:51;;;;;;;10.57;7.40;;;11.30;41.50;;;;;;5004435;28;20452;-65
2022/11/02 00:07:18;;;;;;;12.47;8.40;;;11.20;41.30;;;;;;5004228;28;20475;-65
2022/11/02 00:09:44;;;;;;;15.00;8.97;;;11.20;41.20;;;;;;5003016;28;20447;-66
2022/11/02 00:12:11;;;;;;;15.77;8.83;;;11.20;41.70;;;;;;5008480;28;20459;-66
2022/11/02 00:14:38;;;;;;;14.27;8.23;;;11.30;42.30;;;;;;5006069;28;20495;-66
2022/11/02 00:17:04;;;;;;;13.00;8.53;;;11.30;42.30;;;;;;5005514;28;20470;-66
2022/11/02 00:19:34;;;;;;;17.47;9.03;;;11.30;42.50;;;;;;5003334;28;20540;-65
2022/11/02 00:22:01;;;;;;;11.90;7.70;;;11.40;42.90;;;;;;5008616;28;20940;-66
2022/11/02 00:24:28;;;;;;;14.20;8.23;;;11.40;42.70;;;;;;5003978;28;20480;-65
2022/11/02 00:26:55;;;;;;;13.40;7.50;;;11.40;42.80;;;;;;5006922;28;20462;-66
2022/11/02 00:29:24;;;;;;;14.00;7.57;;;11.40;42.70;;;;;;5007000;28;20456;-66
2022/11/02 00:31:51;;;;;;;15.70;7.43;;;11.40;42.80;;;;;;5006161;28;20554;-67
2022/11/02 00:34:18;;;;;;;11.53;6.60;;;11.40;42.60;;;;;;5006088;28;20594;-66
2022/11/02 00:36:46;;;;;;;13.30;8.50;;;11.30;42.70;;;;;;5004242;28;20465;-66
2022/11/02 00:39:13;;;;;;;10.80;5.90;;;11.40;42.60;;;;;;5003119;28;20962;-66
2022/11/02 00:41:39;;;;;;;12.40;6.50;;;11.30;42.60;;;;;;5006896;28;20995;-67
2022/11/02 00:44:06;;;;;;;12.87;7.23;;;11.30;42.70;;;;;;5005726;28;20479;-65
2022/11/02 00:46:33;;;;;;;12.00;7.13;;;11.30;42.60;;;;;;5002767;28;20460;-66
2022/11/02 00:48:59;;;;;;;11.93;7.40;;;11.30;42.60;;;;;;5004023;28;20469;-65
2022/11/02 00:51:26;;;;;;;11.87;7.40;;;11.30;42.50;;;;;;5003158;28;20475;-66
2022/11/02 00:53:54;;;;;;;9.60;5.83;;;11.30;42.50;;;;;;5005752;28;20486;-67
2022/11/02 00:56:21;;;;;;;11.30;6.67;;;11.30;42.40;;;;;;5009380;28;20479;-65
2022/11/02 00:58:48;;;;;;;11.63;6.63;;;11.30;42.30;;;;;;5002127;28;20464;-66
2022/11/02 01:01:15;;;;;;;12.27;6.57;;;11.30;42.30;;;;;;5003294;28;20482;-65
2022/11/02 01:03:41;;;;;;;11.10;6.50;;;11.30;42.30;;;;;;5002116;28;20870;-66
2022/11/02 01:06:10;;;;;;;9.83;5.73;;;11.30;42.20;;;;;;5004653;28;20487;-66
2022/11/02 01:08:37;;;;;;;13.17;5.97;;;11.20;42.00;;;;;;5010277;28;20460;-66
2022/11/02 01:11:14;;;;;;;9.20;5.50;;;11.20;42.00;;;;;;5006607;28;20460;-66
2022/11/02 01:13:41;;;;;;;9.30;5.77;;;11.10;41.90;;;;;;5001003;28;20491;-65
2022/11/02 01:16:09;;;;;;;11.67;6.37;;;11.10;41.80;;;;;;4999008;28;20498;-65
2022/11/02 01:18:36;;;;;;;8.70;5.80;;;11.10;41.80;;;;;;5008199;28;20508;-65
2022/11/02 01:21:03;;;;;;;10.70;6.53;;;11.10;41.80;;;;;;4996380;28;20460;-65
2022/11/02 01:23:32;;;;;;;12.17;6.20;;;11.00;41.60;;;;;;5006146;28;20538;-67
2022/11/02 01:26:02;;;;;;;9.53;6.50;;;11.00;41.50;;;;;;5006437;28;20535;-66
2022/11/02 01:28:30;;;;;;;10.97;6.40;;;11.00;41.50;;;;;;5007215;28;20463;-66
2022/11/02 01:30:57;;;;;;;8.90;6.00;;;11.00;41.40;;;;;;5004469;28;20468;-65
2022/11/02 01:33:24;;;;;;;11.63;6.20;;;10.90;41.60;;;;;;4999818;28;21198;-65
2022/11/02 01:35:51;;;;;;;9.87;5.97;;;10.90;41.70;;;;;;5004911;28;20479;-66
2022/11/02 01:38:18;;;;;;;10.70;6.50;;;10.90;41.60;;;;;;4999167;28;21544;-67
2022/11/02 01:40:44;;;;;;;9.00;5.80;;;10.90;41.80;;;;;;5004415;28;20456;-66
2022/11/02 01:43:32;;;;;;;9.90;5.60;;;10.90;42.00;;;;;;5003023;28;20492;-65
2022/11/02 01:46:01;;;;;;;9.57;4.90;;;11.00;42.30;;;;;;5004634;28;20980;-65
2022/11/02 01:48:32;;;;;;;9.97;5.43;;;11.00;42.10;;;;;;5002867;28;20466;-66
2022/11/02 01:51:02;;;;;;;10.80;5.03;;;11.00;42.10;;;;;;5006683;28;20475;-65
2022/11/02 01:53:29;;;;;;;9.47;5.10;;;11.00;41.90;;;;;;5004133;28;20487;-65
2022/11/02 01:55:57;;;;;;;8.77;4.93;;;11.00;42.20;;;;;;5005117;28;20853;-64
2022/11/02 01:58:24;;;;;;;8.17;4.90;;;11.00;42.30;;;;;;5005107;28;20491;-65
2022/11/02 02:00:52;;;;;;;9.90;5.97;;;11.00;42.00;;;;;;5005575;28;21173;-66
2022/11/02 02:03:20;;;;;;;9.13;5.50;;;11.00;41.90;;;;;;5005253;28;20523;-66
2022/11/02 02:05:49;;;;;;;8.43;4.80;;;11.00;41.90;;;;;;5006436;28;20470;-65
2022/11/02 02:08:19;;;;;;;14.70;8.30;;;11.00;42.00;;;;;;5003602;28;20460;-65
2022/11/02 02:10:45;;;;;;;8.53;5.20;;;11.00;41.80;;;;;;5004617;28;20475;-66
2022/11/02 02:13:13;;;;;;;9.63;5.67;;;11.00;41.80;;;;;;5003817;28;20476;-66
2022/11/02 02:15:48;;;;;;;8.80;5.43;;;11.00;41.80;;;;;;5000922;28;20476;-66
2022/11/02 02:18:21;;;;;;;12.00;5.40;;;11.00;41.90;;;;;;5003957;28;20471;-65
2022/11/02 02:21:02;;;;;;;13.03;5.77;;;11.00;42.00;;;;;;5008082;28;20456;-66
2022/11/02 02:24:08;;;;;;;8.03;4.90;;;11.00;42.00;;;;;;5000441;28;20476;-66
2022/11/02 02:27:09;;;;;;;9.67;5.47;;;11.00;42.10;;;;;;5004046;28;20457;-67
2022/11/02 02:29:48;;;;;;;8.33;4.90;;;10.90;42.10;;;;;;5001066;28;20471;-65
2022/11/02 02:32:18;;;;;;;12.57;6.20;;;10.90;42.00;;;;;;5005177;28;20475;-67
2022/11/02 02:34:51;;;;;;;9.10;4.70;;;10.90;41.90;;;;;;5006229;28;20838;-66
2022/11/02 02:37:25;;;;;;;7.87;4.93;;;10.80;41.90;;;;;;5000276;28;20456;-66
2022/11/02 02:39:59;;;;;;;8.67;5.20;;;10.80;41.70;;;;;;5003896;28;20976;-67
2022/11/02 02:42:30;;;;;;;10.60;4.53;;;10.80;41.50;;;;;;5000885;28;20964;-66
2022/11/02 02:45:07;;;;;;;8.33;4.87;;;10.80;41.30;;;;;;5006166;28;20455;-66
2022/11/02 02:47:39;;;;;;;8.70;4.67;;;10.70;41.60;;;;;;5000272;28;20456;-66
2022/11/02 02:50:13;;;;;;;7.90;4.77;;;10.70;41.60;;;;;;5004900;28;20456;-66
2022/11/02 02:52:42;;;;;;;12.10;4.70;;;10.70;41.30;;;;;;5004859;28;20490;-66
2022/11/02 02:55:16;;;;;;;8.30;5.33;;;10.70;41.10;;;;;;5002110;28;20464;-67
2022/11/02 02:57:44;;;;;;;7.50;4.37;;;10.70;41.20;;;;;;5005503;28;20459;-66
2022/11/02 03:00:16;;;;;;;9.03;4.73;;;10.70;40.90;;;;;;5004224;28;20467;-65
2022/11/02 03:02:59;;;;;;;8.30;4.60;;;10.60;41.20;;;;;;5004336;28;20558;-66
2022/11/02 03:05:28;;;;;;;12.67;4.73;;;10.60;41.10;;;;;;5005223;28;20557;-65
2022/11/02 03:07:57;;;;;;;8.30;4.20;;;10.60;41.60;;;;;;5004696;28;20508;-67
2022/11/02 03:10:31;;;;;;;7.43;4.10;;;10.60;42.10;;;;;;5000661;28;20475;-66
2022/11/02 03:13:18;;;;;;;9.13;4.50;;;10.60;42.50;;;;;;5006162;28;20483;-67
2022/11/02 03:15:54;;;;;;;8.33;5.00;;;10.60;42.90;;;;;;5001412;28;20844;-66
2022/11/02 03:18:30;;;;;;;8.80;3.63;;;10.50;43.40;;;;;;5001985;28;20907;-67
2022/11/02 03:21:04;;;;;;;7.90;4.03;;;10.50;43.50;;;;;;5000133;28;21107;-67
2022/11/02 03:23:35;;;;;;;8.00;4.00;;;10.60;43.60;;;;;;5000655;28;20479;-67
2022/11/02 03:26:07;;;;;;;8.97;4.37;;;10.60;43.70;;;;;;4998246;28;20456;-67
2022/11/02 03:28:45;;;;;;;12.93;5.03;;;10.60;43.70;;;;;;5001583;28;20456;-65
2022/11/02 03:31:18;;;;;;;10.83;4.67;;;10.60;43.90;;;;;;5005557;28;20487;-67
2022/11/02 03:33:51;;;;;;;8.93;4.50;;;10.60;44.00;;;;;;5004031;28;21066;-67
2022/11/02 03:36:22;;;;;;;10.17;4.90;;;10.60;43.90;;;;;;5000396;28;20821;-65
2022/11/02 03:38:53;;;;;;;9.10;4.90;;;10.60;43.90;;;;;;4994500;28;20500;-67
2022/11/02 03:41:22;;;;;;;12.60;4.70;;;10.60;44.00;;;;;;5001675;28;20459;-67
2022/11/02 03:43:53;;;;;;;10.13;5.10;;;10.50;43.80;;;;;;5001500;28;20991;-65
2022/11/02 03:46:22;;;;;;;9.33;4.77;;;10.50;43.80;;;;;;5004996;28;20456;-66
2022/11/02 03:48:51;;;;;;;10.33;4.60;;;10.50;43.80;;;;;;5002642;28;20543;-66
2022/11/02 03:51:20;;;;;;;9.00;5.20;;;10.50;43.60;;;;;;4996199;28;20471;-66
2022/11/02 03:53:50;;;;;;;10.27;5.23;;;10.50;43.50;;;;;;4994975;28;20483;-66
2022/11/02 03:56:21;;;;;;;7.83;4.80;;;10.50;43.50;;;;;;5000479;28;20472;-66
2022/11/02 03:58:48;;;;;;;8.57;4.33;;;10.60;43.20;;;;;;5006290;28;20523;-65
2022/11/02 04:01:17;;;;;;;8.50;4.57;;;10.50;43.10;;;;;;5002129;28;20495;-65
2022/11/02 04:03:47;;;;;;;7.80;4.87;;;10.50;43.00;;;;;;4997869;28;20492;-65
2022/11/02 04:06:15;;;;;;;11.20;4.60;;;10.50;42.90;;;;;;5006105;28;20448;-67
2022/11/02 04:08:44;;;;;;;8.30;3.87;;;10.50;42.90;;;;;;4998744;28;20460;-66
2022/11/02 04:16:40;;;;;;;8.10;5.00;;;10.60;42.30;;;;;;4998514;28;21033;-65
2022/11/02 04:19:26;;;;;;;7.10;4.10;;;10.60;42.20;;;;;;5000547;28;20472;-65
2022/11/02 04:27:22;;;;;;;10.93;6.37;;;10.50;41.80;;;;;;4999892;28;20490;-66
2022/11/02 04:29:49;;;;;;;10.30;5.30;;;10.50;41.70;;;;;;5003182;28;20835;-66
2022/11/02 04:33:31;;;;;;;10.83;4.60;;;10.50;41.70;;;;;;5006238;28;20482;-66
2022/11/02 04:35:04;;;;;;;8.70;4.50;;;10.50;41.80;;;;;;5001902;28;21003;-66
2022/11/02 04:40:16;;;;;;;12.77;5.47;;;10.50;41.60;;;;;;5000461;28;20844;-66
2022/11/02 04:42:46;;;;;;;10.13;5.13;;;10.50;41.60;;;;;;5003231;28;20480;-65
2022/11/02 04:45:13;;;;;;;11.17;5.30;;;10.50;41.60;;;;;;5009286;28;20459;-67
2022/11/02 04:47:40;;;;;;;10.50;5.03;;;10.50;41.50;;;;;;5001958;28;20870;-67
2022/11/02 04:50:08;;;;;;;10.47;4.87;;;10.50;41.50;;;;;;5002944;28;20475;-66
2022/11/02 04:52:35;;;;;;;8.87;4.50;;;10.50;41.40;;;;;;5008738;28;20740;-65
2022/11/02 04:55:02;;;;;;;9.83;5.37;;;10.50;41.20;;;;;;5002612;28;20487;-66
2022/11/02 04:57:29;;;;;;;7.10;4.20;;;10.50;41.10;;;;;;5008172;28;20480;-65
2022/11/02 04:59:56;;;;;;;10.10;5.23;;;10.50;41.10;;;;;;5009041;28;20463;-66
2022/11/02 05:02:22;;;;;;;8.77;4.90;;;10.50;41.20;;;;;;5004958;28;20483;-65
2022/11/02 05:04:49;;;;;;;10.70;4.77;;;10.50;41.30;;;;;;5008932;28;21023;-66
2022/11/02 05:07:17;;;;;;;7.73;4.40;;;10.50;41.30;;;;;;5005034;28;21086;-66
2022/11/02 05:09:44;;;;;;;9.57;5.53;;;10.50;41.40;;;;;;5008718;28;20452;-67
2022/11/02 05:12:11;;;;;;;8.73;4.67;;;10.50;41.40;;;;;;5002187;28;20468;-67
2022/11/02 05:14:38;;;;;;;11.13;5.07;;;10.50;41.00;;;;;;5004927;28;20480;-66
2022/11/02 05:17:05;;;;;;;7.60;4.60;;;10.50;40.80;;;;;;5005327;28;20490;-66
2022/11/02 05:19:31;;;;;;;9.70;4.50;;;10.50;40.60;;;;;;4998602;28;20468;-66
2022/11/02 05:21:58;;;;;;;9.07;4.53;;;10.50;40.40;;;;;;5005906;28;20459;-65
2022/11/02 05:24:26;;;;;;;8.53;4.47;;;10.40;40.40;;;;;;5007627;28;20482;-66
2022/11/02 05:26:53;;;;;;;10.73;4.93;;;10.40;40.30;;;;;;5006471;28;20463;-65
2022/11/02 05:29:20;;;;;;;7.67;4.80;;;10.40;40.20;;;;;;5007671;28;20460;-65
2022/11/02 05:31:46;;;;;;;11.20;5.40;;;10.40;40.30;;;;;;5006246;28;21003;-67
2022/11/02 05:34:13;;;;;;;9.97;4.63;;;10.40;40.30;;;;;;5004542;28;20475;-65
2022/11/02 05:36:40;;;;;;;7.53;4.90;;;10.40;40.40;;;;;;5005203;28;20471;-65
2022/11/02 05:39:07;;;;;;;12.87;5.10;;;10.30;40.60;;;;;;5001308;28;20474;-65
2022/11/02 05:41:35;;;;;;;10.77;5.10;;;10.30;40.80;;;;;;5005767;28;20464;-66
2022/11/02 05:44:01;;;;;;;10.07;4.60;;;10.20;41.10;;;;;;5007392;28;20487;-66
2022/11/02 05:46:28;;;;;;;14.00;5.80;;;10.20;41.30;;;;;;5006041;28;20476;-66
2022/11/02 05:48:55;;;;;;;9.77;5.23;;;10.20;41.40;;;;;;5008148;28;20456;-66
2022/11/02 05:51:22;;;;;;;12.23;5.23;;;10.20;41.50;;;;;;5007364;28;20464;-66
2022/11/02 05:53:49;;;;;;;10.23;4.60;;;10.20;41.80;;;;;;5007066;28;20483;-66
2022/11/02 05:56:15;;;;;;;7.63;4.33;;;10.20;41.60;;;;;;5000701;28;20483;-65
2022/11/02 05:58:43;;;;;;;10.60;4.53;;;10.20;41.60;;;;;;5007880;28;20500;-66
2022/11/02 06:01:11;;;;;;;8.63;4.80;;;10.10;41.70;;;;;;5002075;28;20567;-65
2022/11/02 06:03:38;;;;;;;11.00;5.13;;;10.10;41.60;;;;;;4998267;28;20490;-65
2022/11/02 06:06:07;;;;;;;9.67;5.13;;;10.10;41.70;;;;;;5004835;28;20467;-66
2022/11/02 06:08:35;;;;;;;17.47;6.13;;;10.10;41.60;;;;;;5007597;28;20463;-66
2022/11/02 06:11:04;;;;;;;8.27;5.17;;;10.20;41.60;;;;;;5001352;28;20462;-66
2022/11/02 06:13:31;;;;;;;7.93;4.80;;;10.10;41.60;;;;;;4999965;28;20974;-65
2022/11/02 06:16:00;;;;;;;9.63;5.37;;;10.20;41.50;;;;;;5007796;28;20460;-65
2022/11/02 06:18:27;;;;;;;8.50;4.90;;;10.10;41.50;;;;;;5002826;28;20992;-65
2022/11/02 06:20:56;;;;;;;8.80;5.40;;;10.10;41.40;;;;;;5005322;28;20838;-66
2022/11/02 06:23:23;;;;;;;9.17;5.80;;;10.10;41.20;;;;;;5004904;28;20483;-65
2022/11/02 06:25:52;;;;;;;8.93;4.83;;;10.20;41.10;;;;;;5006369;28;20462;-66
2022/11/02 06:28:19;;;;;;;8.63;5.27;;;10.20;41.10;;;;;;5003643;28;20952;-65
2022/11/02 06:30:46;;;;;;;10.60;5.60;;;10.30;40.90;;;;;;5006378;28;20468;-66
2022/11/02 06:33:14;;;;;;;10.43;5.83;;;10.30;41.00;;;;;;5001679;28;20515;-66
2022/11/02 06:35:44;;;;;;;9.13;5.40;;;10.40;41.00;;;;;;5005016;28;20463;-65
2022/11/02 06:38:11;;;;;;;7.67;4.60;;;10.40;41.20;;;;;;5003375;28;20487;-64
2022/11/02 06:40:39;;;;;;;13.27;6.40;;;10.50;41.10;;;;;;5004530;28;20826;-64
2022/11/02 06:43:06;;;;;;;12.53;5.43;;;10.50;41.10;;;;;;5006558;28;20487;-65
2022/11/02 06:45:33;;;;;;;8.27;5.60;;;10.50;41.10;;;;;;5002412;28;20576;-65
2022/11/02 06:48:00;;;;;;;10.70;6.20;;;10.60;40.90;;;;;;5004953;28;20492;-65
2022/11/02 06:50:28;;;;;;;10.10;6.17;;;10.60;40.80;;;;;;5001755;28;20472;-66
2022/11/02 06:52:55;;;;;;;10.70;5.43;;;10.70;40.90;;;;;;5004878;28;20486;-64
2022/11/02 06:55:22;;;;;;;8.00;5.50;;;10.70;40.80;;;;;;5005604;28;20510;-66
2022/11/02 06:57:48;;;;;;;10.40;5.70;;;10.80;40.60;;;;;;5006021;28;20489;-65
2022/11/02 07:00:17;;;;;;;11.10;5.90;;;10.90;40.50;;;;;;5002555;28;20464;-65
2022/11/02 07:02:44;;;;;;;11.47;6.13;;;10.90;40.30;;;;;;4999394;28;20534;-64
2022/11/02 07:05:10;;;;;;;8.07;5.20;;;11.00;40.10;;;;;;5004659;28;21176;-64
2022/11/02 07:07:39;;;;;;;11.27;5.80;;;11.10;40.10;;;;;;5006925;28;20831;-65
2022/11/02 07:10:09;;;;;;;14.50;5.50;;;11.20;40.10;;;;;;5004377;28;20456;-64
2022/11/02 07:12:36;;;;;;;9.70;5.13;;;11.20;40.70;;;;;;5003368;28;20814;-65
2022/11/02 07:15:03;;;;;;;11.93;4.77;;;11.30;40.10;;;;;;5003539;28;21092;-65
2022/11/02 07:17:29;;;;;;;10.40;5.00;;;11.50;39.60;;;;;;5000171;28;20498;-65
2022/11/02 07:19:56;;;;;;;8.83;5.57;;;12.10;40.70;;;;;;5001489;28;20996;-65
2022/11/02 07:22:23;;;;;;;9.80;5.60;;;12.90;38.80;;;;;;4999552;28;20937;-64
2022/11/02 07:24:51;;;;;;;10.20;4.80;;;13.60;36.80;;;;;;5000841;28;20483;-64
2022/11/02 07:27:19;;;;;;;7.47;4.33;;;13.80;35.70;;;;;;4998997;28;20462;-65
2022/11/02 07:29:46;;;;;;;8.87;4.77;;;14.00;35.00;;;;;;5001885;28;20979;-65
2022/11/02 07:32:13;;;;;;;8.20;4.57;;;14.50;34.00;;;;;;4998457;28;20858;-65
2022/11/02 07:34:39;;;;;;;7.40;3.97;;;15.10;33.00;;;;;;5005731;28;20491;-65
2022/11/02 07:37:06;;;;;;;9.27;4.13;;;15.50;31.50;;;;;;5002189;28;20478;-64
2022/11/02 07:39:33;;;;;;;7.83;3.60;;;15.50;30.10;;;;;;5005463;28;20464;-65
2022/11/02 07:42:01;;;;;;;9.50;3.63;;;15.50;29.60;;;;;;5003920;28;20459;-64
2022/11/02 07:44:28;;;;;;;8.20;3.70;;;15.30;29.10;;;;;;5000527;28;20484;-65
2022/11/02 07:46:55;;;;;;;7.10;4.10;;;15.20;28.80;;;;;;5007472;28;21173;-65
2022/11/02 07:49:22;;;;;;;7.07;3.30;;;15.10;28.60;;;;;;5002650;28;20460;-66
2022/11/02 07:51:49;;;;;;;11.13;4.23;;;15.00;28.60;;;;;;5007305;28;20456;-65
2022/11/02 07:54:15;;;;;;;13.00;4.10;;;14.90;28.30;;;;;;5005095;28;20476;-65
2022/11/02 07:56:44;;;;;;;11.60;3.63;;;14.90;28.60;;;;;;5006664;28;21023;-65
2022/11/02 07:59:12;;;;;;;7.07;3.47;;;14.80;28.60;;;;;;4996050;28;20467;-67
2022/11/02 08:01:39;;;;;;;7.50;3.73;;;14.80;28.80;;;;;;4999375;28;20513;-65
2022/11/02 08:04:06;;;;;;;7.40;3.37;;;14.70;29.10;;;;;;5005871;28;21019;-65
2022/11/02 08:06:34;;;;;;;8.10;3.70;;;14.70;29.40;;;;;;5005337;28;20470;-65
2022/11/02 08:09:02;;;;;;;10.60;3.67;;;14.70;29.50;;;;;;5005470;28;20452;-65
2022/11/02 08:11:29;;;;;;;10.30;3.43;;;14.80;30.10;;;;;;5005844;28;20514;-65
2022/11/02 08:13:56;;;;;;;6.50;3.73;;;14.80;29.30;;;;;;5008708;28;20850;-65
2022/11/02 08:16:24;;;;;;;6.40;3.60;;;14.70;29.40;;;;;;5004741;28;20470;-67
2022/11/02 08:18:51;;;;;;;7.50;4.00;;;14.70;29.80;;;;;;4996131;28;20558;-66
2022/11/02 08:21:18;;;;;;;6.30;3.53;;;14.70;29.70;;;;;;5007341;28;20465;-65
2022/11/02 08:23:44;;;;;;;8.10;3.40;;;14.60;29.80;;;;;;4995893;28;20526;-66
2022/11/02 08:26:12;;;;;;;8.27;3.30;;;14.60;29.80;;;;;;5009218;28;20956;-65
2022/11/02 08:28:40;;;;;;;11.70;3.60;;;14.60;30.00;;;;;;5010653;28;20448;-65
2022/11/02 08:31:07;;;;;;;5.90;3.60;;;14.60;29.90;;;;;;5004814;28;20986;-66
2022/11/02 08:33:35;;;;;;;7.13;3.93;;;14.60;29.90;;;;;;5008830;28;20533;-65
2022/11/02 08:36:03;;;;;;;8.10;3.30;;;14.80;29.70;;;;;;5000903;28;20472;-65
2022/11/02 08:38:30;;;;;;;6.57;2.80;;;14.90;29.40;;;;;;5005589;28;20494;-66
2022/11/02 08:40:57;;;;;;;7.20;3.20;;;15.00;29.00;;;;;;5005296;28;20460;-65
2022/11/02 08:43:24;;;;;;;8.00;3.23;;;15.10;28.70;;;;;;5006143;28;20476;-65
2022/11/02 08:45:51;;;;;;;10.50;3.30;;;15.10;28.80;;;;;;4999112;28;20997;-65
2022/11/02 08:48:17;;;;;;;7.63;3.00;;;15.20;28.50;;;;;;5010238;28;20857;-64
2022/11/02 08:50:48;;;;;;;8.03;3.20;;;15.40;27.90;;;;;;4998739;28;20836;-63
2022/11/02 08:53:14;;;;;;;7.13;3.70;;;15.70;27.30;;;;;;5006575;28;20495;-64
2022/11/02 08:55:41;;;;;;;8.07;3.17;;;16.00;26.80;;;;;;5008460;28;20467;-64
2022/11/02 08:58:09;;;;;;;6.07;2.60;;;16.40;26.30;;;;;;5006796;28;20483;-65
2022/11/02 09:00:36;;;;;;;6.97;3.43;;;16.70;25.30;;;;;;5008463;28;20476;-64
2022/11/02 09:03:04;;;;;;;10.50;3.60;;;16.90;24.30;;;;;;5006267;28;20487;-65
2022/11/02 09:05:31;;;;;;;7.03;3.10;;;17.00;23.80;;;;;;5009773;28;20467;-65
2022/11/02 09:08:01;;;;;;;7.83;2.80;;;17.00;23.70;;;;;;5005970;28;20452;-65
2022/11/02 09:10:30;;;;;;;6.33;2.80;;;17.10;23.30;;;;;;5005952;28;20464;-64
2022/11/02 09:12:59;;;;;;;8.33;3.63;;;17.20;23.40;;;;;;5009489;28;20478;-67
2022/11/02 09:15:26;;;;;;;5.93;3.30;;;17.10;23.20;;;;;;5006141;28;21199;-65
2022/11/02 09:17:53;;;;;;;10.47;3.30;;;17.10;23.40;;;;;;5006335;28;20476;-65
2022/11/02 09:20:21;;;;;;;8.07;3.10;;;17.00;23.50;;;;;;5006003;28;20474;-66
2022/11/02 09:22:48;;;;;;;8.90;3.50;;;17.50;23.70;;;;;;5005174;28;20484;-66
2022/11/02 09:25:17;;;;;;;9.00;3.50;;;18.20;22.30;;;;;;5006688;28;20463;-66
2022/11/02 09:27:45;;;;;;;6.93;2.87;;;19.10;20.20;;;;;;5007782;28;20458;-65
2022/11/02 09:30:13;;;;;;;11.30;2.90;;;20.40;18.40;;;;;;5006758;28;20464;-65
2022/11/02 09:32:40;;;;;;;9.87;2.60;;;21.20;15.70;;;;;;5004911;28;20488;-66
2022/11/02 09:35:09;;;;;;;9.57;3.10;;;20.80;15.20;;;;;;5004481;28;20460;-66
2022/11/02 09:37:36;;;;;;;6.70;2.47;;;20.20;15.80;;;;;;5006256;28;20480;-65
2022/11/02 09:40:03;;;;;;;8.50;2.90;;;19.60;16.40;;;;;;5007186;28;20460;-65
2022/11/02 09:42:40;;;;;;;6.43;2.70;;;19.40;16.80;;;;;;5008887;28;20468;-65
2022/11/02 09:45:12;;;;;;;8.00;2.47;;;19.10;17.60;;;;;;5006647;28;20486;-65
2022/11/02 09:47:44;;;;;;;8.83;2.77;;;19.00;17.90;;;;;;5005895;28;20526;-64
2022/11/02 09:50:18;;;;;;;5.80;2.07;;;18.80;17.80;;;;;;5002482;28;20463;-64
2022/11/02 09:52:49;;;;;;;8.60;2.47;;;18.60;18.10;;;;;;5008603;28;20479;-66
2022/11/02 09:55:21;;;;;;;9.17;2.50;;;18.50;18.10;;;;;;4997295;28;20460;-65
2022/11/02 09:57:54;;;;;;;5.83;2.10;;;18.30;18.70;;;;;;4997703;28;20477;-64
2022/11/02 10:00:21;;;;;;;6.10;2.40;;;18.20;19.00;;;;;;5005429;28;21038;-64
2022/11/02 10:02:59;;;;;;;5.67;1.80;;;18.10;19.40;;;;;;5001559;28;21002;-65
2022/11/02 10:05:35;;;;;;;9.10;2.07;;;18.00;20.00;;;;;;5007120;28;20460;-64
2022/11/02 10:08:30;;;;;;;10.30;2.50;;;17.80;20.40;;;;;;5008274;28;20455;-64
2022/11/02 10:11:09;;;;;;;8.17;2.23;;;17.80;20.00;;;;;;4999409;28;20468;-67
2022/11/02 10:13:43;;;;;;;8.13;2.13;;;17.70;20.30;;;;;;5002346;28;20999;-65
2022/11/02 10:16:15;;;;;;;8.53;2.30;;;17.50;20.90;;;;;;4998668;28;20981;-66
2022/11/02 10:18:43;;;;;;;8.80;2.03;;;17.50;20.70;;;;;;5006270;28;20482;-65
2022/11/02 10:21:15;;;;;;;9.87;2.60;;;17.40;20.90;;;;;;5003558;28;20464;-66
2022/11/02 10:23:46;;;;;;;6.37;1.83;;;17.40;21.20;;;;;;5006718;28;20495;-67
2022/11/02 10:26:18;;;;;;;6.73;1.90;;;17.40;20.90;;;;;;5004717;28;20499;-67
2022/11/02 10:28:50;;;;;;;7.57;2.03;;;17.30;20.90;;;;;;5000186;28;20502;-65
2022/11/02 10:31:25;;;;;;;6.47;1.33;;;17.30;21.10;;;;;;5003781;28;20476;-66
2022/11/02 10:33:53;;;;;;;6.23;1.60;;;17.40;20.80;;;;;;4998048;28;20486;-65
2022/11/02 10:36:32;;;;;;;4.83;1.40;;;17.50;20.60;;;;;;5008279;28;20514;-64
2022/11/02 10:39:13;;;;;;;6.57;1.50;;;17.60;20.30;;;;;;5008155;28;20482;-66
2022/11/02 10:42:20;;;;;;;6.73;1.53;;;17.60;19.70;;;;;;5005432;28;20467;-64
2022/11/02 10:45:16;;;;;;;10.47;1.87;;;17.70;19.60;;;;;;4923227;29;21193;-65
2022/11/02 10:47:51;;;;;;;8.27;2.10;;;17.70;19.40;;;;;;4917857;29;20475;-65
2022/11/02 10:50:36;;;;;;;8.83;2.10;;;17.70;19.60;;;;;;4975724;28;20459;-65
2022/11/02 10:53:03;;;;;;;11.27;3.30;;;17.70;19.50;;;;;;5000145;28;20514;-65
2022/11/02 10:55:40;;;;;;;11.43;3.37;;;17.80;19.10;;;;;;5006837;28;20471;-65
2022/11/02 10:58:11;;;;;;;9.50;1.70;;;17.80;19.30;;;;;;5004699;28;20572;-65
2022/11/02 11:00:42;;;;;;;12.03;2.03;;;17.80;19.60;;;;;;5001174;28;20475;-65
2022/11/02 11:03:10;;;;;;;4.83;1.57;;;17.90;19.80;;;;;;5001939;28;21067;-65
2022/11/02 11:05:54;;;;;;;8.60;2.00;;;17.90;18.20;;;;;;5002176;28;20861;-65
2022/11/02 11:08:31;;;;;;;5.50;1.40;;;17.90;18.30;;;;;;5004827;28;20479;-65
2022/11/02 11:11:10;;;;;;;6.30;1.87;;;17.80;18.40;;;;;;5002268;28;20460;-65
2022/11/02 11:13:38;;;;;;;5.87;2.00;;;17.80;17.60;;;;;;5004679;28;20480;-65
2022/11/02 11:16:07;;;;;;;6.20;1.50;;;17.80;18.30;;;;;;5007620;28;20459;-65
2022/11/02 11:18:34;;;;;;;8.40;2.00;;;17.80;18.70;;;;;;4997435;28;20490;-65
2022/11/02 11:21:01;;;;;;;9.03;1.37;;;17.80;18.70;;;;;;5002803;28;20461;-65
2022/11/02 11:23:28;;;;;;;5.43;1.37;;;17.80;18.10;;;;;;5002572;28;20472;-65
2022/11/02 11:25:58;;;;;;;8.37;1.53;;;17.80;18.40;;;;;;5005421;28;20463;-64
2022/11/02 11:28:27;;;;;;;4.47;1.27;;;17.80;17.90;;;;;;4999325;28;20457;-65
2022/11/02 11:31:11;;;;;;;6.40;1.30;;;17.80;18.20;;;;;;5007285;28;20459;-66
2022/11/02 11:33:51;;;;;;;8.00;1.63;;;17.80;18.30;;;;;;4997172;28;20483;-65
2022/11/02 11:36:26;;;;;;;6.50;1.60;;;17.80;18.40;;;;;;5004718;28;20474;-65
2022/11/02 11:38:56;;;;;;;7.37;1.80;;;17.90;18.20;;;;;;5000178;28;21030;-65
2022/11/02 11:41:23;;;;;;;6.80;1.37;;;17.90;18.20;;;;;;5006825;28;20576;-65
2022/11/02 11:43:52;;;;;;;5.43;1.40;;;17.90;17.50;;;;;;5007624;28;20483;-64
2022/11/02 11:46:20;;;;;;;6.50;1.30;;;17.90;17.40;;;;;;5011893;28;20521;-64
2022/11/02 11:48:50;;;;;;;6.87;1.50;;;17.90;17.70;;;;;;5003133;28;20553;-67
2022/11/02 11:51:31;;;;;;;6.53;1.30;;;17.80;17.80;;;;;;5005711;28;20459;-64
2022/11/02 11:54:21;;;;;;;6.73;1.30;;;17.80;17.80;;;;;;5007774;28;20490;-66
2022/11/02 11:56:49;;;;;;;4.77;1.30;;;17.90;17.30;;;;;;4988456;28;20467;-65
2022/11/02 11:59:28;;;;;;;6.30;1.30;;;17.90;18.10;;;;;;5003877;28;20491;-65
2022/11/02 12:01:59;;;;;;;8.30;2.07;;;17.90;17.70;;;;;;5007261;28;20506;-65
2022/11/02 12:04:31;;;;;;;6.63;1.80;;;18.00;17.80;;;;;;5008600;28;20496;-64
2022/11/02 12:07:19;;;;;;;10.80;2.90;;;18.00;17.80;;;;;;5005628;28;20459;-66
2022/11/02 12:09:52;;;;;;;7.37;2.10;;;18.00;18.00;;;;;;5006766;28;20463;-64
2022/11/02 12:12:28;;;;;;;5.43;1.40;;;18.10;17.50;;;;;;5011642;28;20467;-64
2022/11/02 12:15:05;;;;;;;6.00;1.40;;;18.10;16.70;;;;;;5010727;28;20451;-65
2022/11/02 12:17:46;;;;;;;7.50;1.70;;;18.00;16.70;;;;;;5006941;28;20460;-66
2022/11/02 12:20:26;;;;;;;5.57;1.80;;;18.00;16.60;;;;;;5006657;28;20455;-66
2022/11/02 12:23:02;;;;;;;6.60;1.33;;;18.00;16.60;;;;;;5011156;28;20495;-65
2022/11/02 12:25:47;;;;;;;4.33;1.23;;;18.00;16.80;;;;;;5009847;28;20462;-65
2022/11/02 12:28:28;;;;;;;4.80;1.13;;;17.90;16.80;;;;;;5012576;28;20472;-66
2022/11/02 12:31:06;;;;;;;5.20;1.20;;;17.90;16.90;;;;;;5004587;28;20511;-65
2022/11/02 12:33:46;;;;;;;5.30;1.57;;;17.90;16.90;;;;;;5002756;28;20480;-65
2022/11/02 12:36:25;;;;;;;4.57;1.40;;;17.90;17.00;;;;;;5008443;28;20992;-65
2022/11/02 12:38:55;;;;;;;6.43;1.50;;;18.00;17.10;;;;;;5013439;28;20479;-66
2022/11/02 12:41:50;;;;;;;4.60;1.50;;;18.00;16.80;;;;;;5004584;28;20875;-65
2022/11/02 12:44:34;;;;;;;4.70;1.50;;;18.10;17.70;;;;;;4999607;28;20491;-65
2022/11/02 12:47:10;;;;;;;6.50;1.53;;;18.20;16.70;;;;;;5003876;28;20456;-65
2022/11/02 12:49:46;;;;;;;6.10;1.53;;;18.40;16.60;;;;;;5006204;28;20447;-66
2022/11/02 12:52:24;;;;;;;5.33;1.10;;;18.50;16.40;;;;;;5007582;28;20486;-65
2022/11/02 12:54:56;;;;;;;6.83;1.60;;;18.50;16.50;;;;;;5000645;28;20987;-65
2022/11/02 12:57:27;;;;;;;7.30;2.07;;;18.50;16.10;;;;;;5002630;28;20964;-67
2022/11/02 12:59:58;;;;;;;5.57;1.53;;;18.40;15.80;;;;;;5003435;28;20570;-67
2022/11/02 13:02:29;;;;;;;5.37;1.40;;;18.40;15.60;;;;;;5005049;28;20487;-65
2022/11/02 13:05:02;;;;;;;7.20;1.40;;;18.40;15.90;;;;;;5003635;28;20934;-65
2022/11/02 13:07:34;;;;;;;7.43;1.40;;;18.30;15.80;;;;;;5002262;28;20981;-65
2022/11/02 13:10:04;;;;;;;7.10;1.90;;;18.30;15.70;;;;;;5004424;28;20461;-67
2022/11/02 13:12:35;;;;;;;6.10;1.93;;;18.20;15.90;;;;;;5004306;28;20463;-64
2022/11/02 13:15:03;;;;;;;7.33;1.63;;;18.20;16.10;;;;;;5001827;28;20972;-66